sensor_id;sensor_type;location;lat;lon;timestamp;temperature;humidity
16313;DHT22;8265;52.622;13.296;2022-08-19T00:03:59;20.80;99.90
16313;DHT22;8265;52.622;13.296;2022-08-19T00:09:20;20.90;99.90
16313;DHT22;8265;52.622;13.296;2022-08-19T00:14:41;20.90;99.90
16313;DHT22;8265;52.622;13.296;2022-08-19T00:20:02;20.90;99.90
16313;DHT22;8265;52.622;13.296;2022-08-19T00:25:22;21.00;99.90
16313;DHT22;8265;52.622;13.296;2022-08-19T00:30:44;20.90;99.90
16313;DHT22;8265;52.622;13.296;2022-08-19T00:36:05;20.90;99.90
16313;DHT22;8265;52.622;13.296;2022-08-19T00:41:26;20.90;99.90
16313;DHT22;8265;52.622;13.296;2022-08-19T00:46:47;20.90;99.90
16313;DHT22;8265;52.622;13.296;2022-08-19T00:52:09;20.80;99.90
16313;DHT22;8265;52.622;13.296;2022-08-19T00:57:29;20.70;99.90
16313;DHT22;8265;52.622;13.296;2022-08-19T01:02:49;20.70;99.90
16313;DHT22;8265;52.622;13.296;2022-08-19T01:08:10;20.80;99.90
16313;DHT22;8265;52.622;13.296;2022-08-19T01:13:32;20.80;99.90
16313;DHT22;8265;52.622;13.296;2022-08-19T01:18:52;20.80;99.90
16313;DHT22;8265;52.622;13.296;2022-08-19T01:24:13;20.70;99.90
16313;DHT22;8265;52.622;13.296;2022-08-19T01:29:34;20.70;99.90
16313;DHT22;8265;52.622;13.296;2022-08-19T01:34:55;20.80;99.90
16313;DHT22;8265;52.622;13.296;2022-08-19T01:40:16;20.70;99.90
16313;DHT22;8265;52.622;13.296;2022-08-19T01:45:37;20.60;99.90
16313;DHT22;8265;52.622;13.296;2022-08-19T01:50:58;20.50;99.90
16313;DHT22;8265;52.622;13.296;2022-08-19T01:56:19;20.50;99.90
16313;DHT22;8265;52.622;13.296;2022-08-19T02:01:40;20.50;99.90
16313;DHT22;8265;52.622;13.296;2022-08-19T02:07:01;20.50;99.90
16313;DHT22;8265;52.622;13.296;2022-08-19T02:12:22;20.50;99.90
16313;DHT22;8265;52.622;13.296;2022-08-19T02:17:43;20.50;99.90
16313;DHT22;8265;52.622;13.296;2022-08-19T02:23:04;20.50;99.90
16313;DHT22;8265;52.622;13.296;2022-08-19T02:28:25;20.50;99.90
16313;DHT22;8265;52.622;13.296;2022-08-19T02:33:46;20.50;99.90
16313;DHT22;8265;52.622;13.296;2022-08-19T02:39:07;20.40;99.90
16313;DHT22;8265;52.622;13.296;2022-08-19T02:44:28;20.50;99.90
16313;DHT22;8265;52.622;13.296;2022-08-19T02:49:49;20.40;99.90
16313;DHT22;8265;52.622;13.296;2022-08-19T02:55:10;20.40;99.90
16313;DHT22;8265;52.622;13.296;2022-08-19T03:00:31;20.40;99.90
16313;DHT22;8265;52.622;13.296;2022-08-19T03:06:01;20.40;99.90
16313;DHT22;8265;52.622;13.296;2022-08-19T03:11:16;20.30;99.90
16313;DHT22;8265;52.622;13.296;2022-08-19T03:16:34;20.30;99.90
16313;DHT22;8265;52.622;13.296;2022-08-19T03:21:55;20.30;99.90
16313;DHT22;8265;52.622;13.296;2022-08-19T03:27:15;20.30;99.90
16313;DHT22;8265;52.622;13.296;2022-08-19T03:32:36;20.30;99.90
16313;DHT22;8265;52.622;13.296;2022-08-19T03:37:58;20.30;99.90
16313;DHT22;8265;52.622;13.296;2022-08-19T03:43:18;20.30;99.90
16313;DHT22;8265;52.622;13.296;2022-08-19T03:48:40;20.10;99.90
16313;DHT22;8265;52.622;13.296;2022-08-19T03:54:01;20.20;99.90
16313;DHT22;8265;52.622;13.296;2022-08-19T03:59:23;20.10;99.90
16313;DHT22;8265;52.622;13.296;2022-08-19T04:04:43;20.10;99.90
16313;DHT22;8265;52.622;13.296;2022-08-19T04:10:04;20.20;99.90
16313;DHT22;8265;52.622;13.296;2022-08-19T04:15:24;20.20;99.90
16313;DHT22;8265;52.622;13.296;2022-08-19T04:20:46;20.30;99.90
16313;DHT22;8265;52.622;13.296;2022-08-19T04:26:06;20.30;99.90
16313;DHT22;8265;52.622;13.296;2022-08-19T04:31:28;20.20;99.90
16313;DHT22;8265;52.622;13.296;2022-08-19T04:36:48;20.20;99.90
16313;DHT22;8265;52.622;13.296;2022-08-19T04:42:09;20.30;99.90
16313;DHT22;8265;52.622;13.296;2022-08-19T04:47:30;20.20;99.90
16313;DHT22;8265;52.622;13.296;2022-08-19T04:52:52;20.20;99.90
16313;DHT22;8265;52.622;13.296;2022-08-19T04:58:12;20.20;99.90
16313;DHT22;8265;52.622;13.296;2022-08-19T05:03:33;20.20;99.90
16313;DHT22;8265;52.622;13.296;2022-08-19T05:08:54;20.10;99.90
16313;DHT22;8265;52.622;13.296;2022-08-19T05:14:15;20.20;99.90
16313;DHT22;8265;52.622;13.296;2022-08-19T05:19:36;20.20;99.90
16313;DHT22;8265;52.622;13.296;2022-08-19T05:24:57;20.30;99.90
16313;DHT22;8265;52.622;13.296;2022-08-19T05:30:18;20.30;99.90
16313;DHT22;8265;52.622;13.296;2022-08-19T05:35:39;20.50;99.90
16313;DHT22;8265;52.622;13.296;2022-08-19T05:41:00;20.70;99.90
16313;DHT22;8265;52.622;13.296;2022-08-19T05:46:21;21.10;99.90
16313;DHT22;8265;52.622;13.296;2022-08-19T05:51:42;21.30;99.90
16313;DHT22;8265;52.622;13.296;2022-08-19T05:57:03;21.60;99.90
16313;DHT22;8265;52.622;13.296;2022-08-19T06:02:24;22.00;99.90
16313;DHT22;8265;52.622;13.296;2022-08-19T06:07:45;22.30;99.90
16313;DHT22;8265;52.622;13.296;2022-08-19T06:13:06;22.40;99.90
16313;DHT22;8265;52.622;13.296;2022-08-19T06:18:27;22.70;99.90
16313;DHT22;8265;52.622;13.296;2022-08-19T06:23:48;22.70;99.90
16313;DHT22;8265;52.622;13.296;2022-08-19T06:29:09;22.90;99.90
16313;DHT22;8265;52.622;13.296;2022-08-19T06:34:30;22.80;99.90
16313;DHT22;8265;52.622;13.296;2022-08-19T06:39:50;22.50;99.90
16313;DHT22;8265;52.622;13.296;2022-08-19T06:45:12;22.50;99.90
16313;DHT22;8265;52.622;13.296;2022-08-19T06:50:32;22.60;99.90
16313;DHT22;8265;52.622;13.296;2022-08-19T06:55:53;22.70;99.90
16313;DHT22;8265;52.622;13.296;2022-08-19T07:01:14;22.80;99.90
16313;DHT22;8265;52.622;13.296;2022-08-19T07:06:36;22.80;99.90
16313;DHT22;8265;52.622;13.296;2022-08-19T07:11:56;22.60;99.90
16313;DHT22;8265;52.622;13.296;2022-08-19T07:17:17;22.60;99.90
16313;DHT22;8265;52.622;13.296;2022-08-19T07:22:39;22.60;99.90
16313;DHT22;8265;52.622;13.296;2022-08-19T07:27:59;22.70;99.90
16313;DHT22;8265;52.622;13.296;2022-08-19T07:33:20;22.80;99.90
16313;DHT22;8265;52.622;13.296;2022-08-19T07:38:47;22.80;99.90
16313;DHT22;8265;52.622;13.296;2022-08-19T07:44:02;22.90;99.90
16313;DHT22;8265;52.622;13.296;2022-08-19T07:49:23;22.70;99.90
16313;DHT22;8265;52.622;13.296;2022-08-19T07:54:44;22.70;99.90
16313;DHT22;8265;52.622;13.296;2022-08-19T08:00:07;22.80;99.90
16313;DHT22;8265;52.622;13.296;2022-08-19T08:05:26;22.90;99.90
16313;DHT22;8265;52.622;13.296;2022-08-19T08:10:47;23.10;99.90
16313;DHT22;8265;52.622;13.296;2022-08-19T08:16:08;23.20;99.90
16313;DHT22;8265;52.622;13.296;2022-08-19T08:21:29;23.40;99.90
16313;DHT22;8265;52.622;13.296;2022-08-19T08:26:50;23.40;99.90
16313;DHT22;8265;52.622;13.296;2022-08-19T08:32:11;23.20;99.90
16313;DHT22;8265;52.622;13.296;2022-08-19T08:37:32;23.20;99.90
16313;DHT22;8265;52.622;13.296;2022-08-19T08:42:55;23.30;99.90
16313;DHT22;8265;52.622;13.296;2022-08-19T08:48:16;23.30;99.90
16313;DHT22;8265;52.622;13.296;2022-08-19T08:53:35;23.20;99.90
16313;DHT22;8265;52.622;13.296;2022-08-19T08:58:58;23.00;99.90
16313;DHT22;8265;52.622;13.296;2022-08-19T09:04:17;23.00;99.90
16313;DHT22;8265;52.622;13.296;2022-08-19T09:09:39;23.20;99.90
16313;DHT22;8265;52.622;13.296;2022-08-19T09:15:00;23.00;99.90
16313;DHT22;8265;52.622;13.296;2022-08-19T09:20:20;22.90;99.90
16313;DHT22;8265;52.622;13.296;2022-08-19T09:25:41;23.20;99.90
16313;DHT22;8265;52.622;13.296;2022-08-19T09:31:02;23.60;99.90
16313;DHT22;8265;52.622;13.296;2022-08-19T09:36:23;23.90;99.90
16313;DHT22;8265;52.622;13.296;2022-08-19T09:41:44;24.40;99.90
16313;DHT22;8265;52.622;13.296;2022-08-19T09:47:05;24.70;99.90
16313;DHT22;8265;52.622;13.296;2022-08-19T09:52:25;25.70;99.90
16313;DHT22;8265;52.622;13.296;2022-08-19T09:57:46;25.30;99.90
16313;DHT22;8265;52.622;13.296;2022-08-19T10:03:07;24.90;99.90
16313;DHT22;8265;52.622;13.296;2022-08-19T10:08:29;24.90;99.90
16313;DHT22;8265;52.622;13.296;2022-08-19T10:13:49;24.90;99.90
16313;DHT22;8265;52.622;13.296;2022-08-19T10:19:10;24.90;99.90
16313;DHT22;8265;52.622;13.296;2022-08-19T10:24:31;25.00;99.90
16313;DHT22;8265;52.622;13.296;2022-08-19T10:29:52;25.20;99.90
16313;DHT22;8265;52.622;13.296;2022-08-19T10:35:13;25.20;99.90
16313;DHT22;8265;52.622;13.296;2022-08-19T10:40:34;25.20;99.90
16313;DHT22;8265;52.622;13.296;2022-08-19T10:45:55;25.00;99.90
16313;DHT22;8265;52.622;13.296;2022-08-19T10:51:17;24.70;99.90
16313;DHT22;8265;52.622;13.296;2022-08-19T10:56:37;24.90;99.90
16313;DHT22;8265;52.622;13.296;2022-08-19T11:02:00;24.80;99.90
16313;DHT22;8265;52.622;13.296;2022-08-19T11:07:19;25.10;99.90
16313;DHT22;8265;52.622;13.296;2022-08-19T11:12:40;25.10;99.90
16313;DHT22;8265;52.622;13.296;2022-08-19T11:18:01;25.40;99.90
16313;DHT22;8265;52.622;13.296;2022-08-19T11:23:22;24.70;99.90
16313;DHT22;8265;52.622;13.296;2022-08-19T11:28:43;24.50;99.90
16313;DHT22;8265;52.622;13.296;2022-08-19T11:34:05;24.50;99.90
16313;DHT22;8265;52.622;13.296;2022-08-19T11:39:27;24.50;99.90
16313;DHT22;8265;52.622;13.296;2022-08-19T11:44:46;25.10;99.90
16313;DHT22;8265;52.622;13.296;2022-08-19T11:50:07;25.20;99.90
16313;DHT22;8265;52.622;13.296;2022-08-19T11:55:28;25.20;99.90
16313;DHT22;8265;52.622;13.296;2022-08-19T12:00:49;24.90;99.90
16313;DHT22;8265;52.622;13.296;2022-08-19T12:06:11;24.30;99.90
16313;DHT22;8265;52.622;13.296;2022-08-19T12:11:31;24.10;99.90
16313;DHT22;8265;52.622;13.296;2022-08-19T12:16:52;24.10;99.90
16313;DHT22;8265;52.622;13.296;2022-08-19T12:22:13;24.00;99.90
16313;DHT22;8265;52.622;13.296;2022-08-19T12:27:34;24.10;99.90
16313;DHT22;8265;52.622;13.296;2022-08-19T12:32:55;24.40;99.90
16313;DHT22;8265;52.622;13.296;2022-08-19T12:38:16;24.20;99.90
16313;DHT22;8265;52.622;13.296;2022-08-19T12:43:37;24.00;99.90
16313;DHT22;8265;52.622;13.296;2022-08-19T12:48:58;23.90;99.90
16313;DHT22;8265;52.622;13.296;2022-08-19T12:54:18;24.30;99.90
16313;DHT22;8265;52.622;13.296;2022-08-19T12:59:39;24.60;99.90
16313;DHT22;8265;52.622;13.296;2022-08-19T13:05:00;24.50;99.90
16313;DHT22;8265;52.622;13.296;2022-08-19T13:10:22;24.60;99.90
16313;DHT22;8265;52.622;13.296;2022-08-19T13:15:43;25.20;99.90
16313;DHT22;8265;52.622;13.296;2022-08-19T13:21:04;26.40;99.90
16313;DHT22;8265;52.622;13.296;2022-08-19T13:26:25;26.60;99.90
16313;DHT22;8265;52.622;13.296;2022-08-19T13:31:46;26.60;99.90
16313;DHT22;8265;52.622;13.296;2022-08-19T13:37:07;26.60;99.90
16313;DHT22;8265;52.622;13.296;2022-08-19T13:42:27;26.40;99.90
16313;DHT22;8265;52.622;13.296;2022-08-19T13:47:49;26.70;99.90
16313;DHT22;8265;52.622;13.296;2022-08-19T13:53:10;26.40;99.90
16313;DHT22;8265;52.622;13.296;2022-08-19T13:58:30;26.90;99.90
16313;DHT22;8265;52.622;13.296;2022-08-19T14:03:51;27.40;99.90
16313;DHT22;8265;52.622;13.296;2022-08-19T14:09:12;26.30;99.90
16313;DHT22;8265;52.622;13.296;2022-08-19T14:14:36;26.20;99.90
16313;DHT22;8265;52.622;13.296;2022-08-19T14:19:58;25.70;99.90
16313;DHT22;8265;52.622;13.296;2022-08-19T14:25:16;26.50;99.90
16313;DHT22;8265;52.622;13.296;2022-08-19T14:30:36;26.50;99.90
16313;DHT22;8265;52.622;13.296;2022-08-19T14:35:57;26.50;99.90
16313;DHT22;8265;52.622;13.296;2022-08-19T15:01:08;25.40;99.90
16313;DHT22;8265;52.622;13.296;2022-08-19T15:05:32;25.70;99.90
16313;DHT22;8265;52.622;13.296;2022-08-19T15:16:14;25.20;99.90
16313;DHT22;8265;52.622;13.296;2022-08-19T15:21:39;24.70;99.90
16313;DHT22;8265;52.622;13.296;2022-08-19T15:26:59;24.60;99.90
16313;DHT22;8265;52.622;13.296;2022-08-19T15:32:18;24.30;99.90
16313;DHT22;8265;52.622;13.296;2022-08-19T15:37:38;24.00;99.90
16313;DHT22;8265;52.622;13.296;2022-08-19T15:43:00;23.90;99.90
16313;DHT22;8265;52.622;13.296;2022-08-19T15:49:16;23.60;99.90
16313;DHT22;8265;52.622;13.296;2022-08-19T15:54:11;23.40;99.90
16313;DHT22;8265;52.622;13.296;2022-08-19T15:59:34;23.40;99.90
16313;DHT22;8265;52.622;13.296;2022-08-19T16:04:59;23.30;99.90
16313;DHT22;8265;52.622;13.296;2022-08-19T16:10:23;23.20;99.90
16313;DHT22;8265;52.622;13.296;2022-08-19T16:15:37;23.10;99.90
16313;DHT22;8265;52.622;13.296;2022-08-19T16:20:55;23.00;99.90
16313;DHT22;8265;52.622;13.296;2022-08-19T16:26:17;23.10;99.90
16313;DHT22;8265;52.622;13.296;2022-08-19T16:31:37;23.00;99.90
16313;DHT22;8265;52.622;13.296;2022-08-19T16:36:58;23.00;99.90
16313;DHT22;8265;52.622;13.296;2022-08-19T16:42:19;23.20;99.90
16313;DHT22;8265;52.622;13.296;2022-08-19T16:47:40;23.20;99.90
16313;DHT22;8265;52.622;13.296;2022-08-19T16:53:01;23.10;99.90
16313;DHT22;8265;52.622;13.296;2022-08-19T16:58:22;23.00;99.90
16313;DHT22;8265;52.622;13.296;2022-08-19T17:03:43;22.90;99.90
16313;DHT22;8265;52.622;13.296;2022-08-19T17:09:04;22.80;99.90
16313;DHT22;8265;52.622;13.296;2022-08-19T17:14:24;22.70;99.90
16313;DHT22;8265;52.622;13.296;2022-08-19T17:19:46;22.60;99.90
16313;DHT22;8265;52.622;13.296;2022-08-19T17:25:08;22.40;99.90
16313;DHT22;8265;52.622;13.296;2022-08-19T17:30:28;22.30;99.90
16313;DHT22;8265;52.622;13.296;2022-08-19T17:35:48;22.20;99.90
16313;DHT22;8265;52.622;13.296;2022-08-19T17:41:09;22.10;99.90
16313;DHT22;8265;52.622;13.296;2022-08-19T17:46:31;22.10;99.90
16313;DHT22;8265;52.622;13.296;2022-08-19T17:51:51;22.30;99.90
16313;DHT22;8265;52.622;13.296;2022-08-19T17:57:12;22.10;99.90
16313;DHT22;8265;52.622;13.296;2022-08-19T18:02:33;22.00;99.90
16313;DHT22;8265;52.622;13.296;2022-08-19T18:07:54;21.90;99.90
16313;DHT22;8265;52.622;13.296;2022-08-19T18:13:15;21.90;99.90
16313;DHT22;8265;52.622;13.296;2022-08-19T18:18:36;21.80;99.90
16313;DHT22;8265;52.622;13.296;2022-08-19T18:23:57;21.90;99.90
16313;DHT22;8265;52.622;13.296;2022-08-19T18:29:18;21.80;99.90
16313;DHT22;8265;52.622;13.296;2022-08-19T18:34:39;21.80;99.90
16313;DHT22;8265;52.622;13.296;2022-08-19T18:40:00;21.80;99.90
16313;DHT22;8265;52.622;13.296;2022-08-19T18:45:21;21.80;99.90
16313;DHT22;8265;52.622;13.296;2022-08-19T18:50:42;21.80;99.90
16313;DHT22;8265;52.622;13.296;2022-08-19T18:56:03;21.90;99.90
16313;DHT22;8265;52.622;13.296;2022-08-19T19:01:25;21.80;99.90
16313;DHT22;8265;52.622;13.296;2022-08-19T19:06:45;21.80;99.90
16313;DHT22;8265;52.622;13.296;2022-08-19T19:12:08;21.80;99.90
16313;DHT22;8265;52.622;13.296;2022-08-19T19:17:27;21.70;99.90
16313;DHT22;8265;52.622;13.296;2022-08-19T19:22:48;21.70;99.90
16313;DHT22;8265;52.622;13.296;2022-08-19T19:28:09;21.70;99.90
16313;DHT22;8265;52.622;13.296;2022-08-19T19:33:30;21.70;99.90
16313;DHT22;8265;52.622;13.296;2022-08-19T19:38:51;21.80;99.90
16313;DHT22;8265;52.622;13.296;2022-08-19T19:44:12;21.80;99.90
16313;DHT22;8265;52.622;13.296;2022-08-19T19:49:33;21.70;99.90
16313;DHT22;8265;52.622;13.296;2022-08-19T19:54:54;21.80;99.90
16313;DHT22;8265;52.622;13.296;2022-08-19T20:00:16;21.60;99.90
16313;DHT22;8265;52.622;13.296;2022-08-19T20:05:36;21.60;99.90
16313;DHT22;8265;52.622;13.296;2022-08-19T20:10:59;21.70;99.90
16313;DHT22;8265;52.622;13.296;2022-08-19T20:16:18;21.50;99.90
16313;DHT22;8265;52.622;13.296;2022-08-19T20:21:39;21.40;99.90
16313;DHT22;8265;52.622;13.296;2022-08-19T20:27:00;21.40;99.90
16313;DHT22;8265;52.622;13.296;2022-08-19T20:32:20;21.40;99.90
16313;DHT22;8265;52.622;13.296;2022-08-19T20:37:41;21.50;99.90
16313;DHT22;8265;52.622;13.296;2022-08-19T20:43:06;21.60;99.90
16313;DHT22;8265;52.622;13.296;2022-08-19T20:48:23;21.40;99.90
16313;DHT22;8265;52.622;13.296;2022-08-19T20:53:44;21.30;99.90
16313;DHT22;8265;52.622;13.296;2022-08-19T20:59:05;21.30;99.90
16313;DHT22;8265;52.622;13.296;2022-08-19T21:04:26;21.30;99.90
16313;DHT22;8265;52.622;13.296;2022-08-19T21:09:47;21.30;99.90
16313;DHT22;8265;52.622;13.296;2022-08-19T21:15:09;21.40;99.90
16313;DHT22;8265;52.622;13.296;2022-08-19T21:20:29;21.30;99.90
16313;DHT22;8265;52.622;13.296;2022-08-19T21:25:52;21.40;99.90
16313;DHT22;8265;52.622;13.296;2022-08-19T21:31:11;21.40;99.90
16313;DHT22;8265;52.622;13.296;2022-08-19T21:36:32;21.20;99.90
16313;DHT22;8265;52.622;13.296;2022-08-19T21:41:53;21.40;99.90
16313;DHT22;8265;52.622;13.296;2022-08-19T21:47:14;21.30;99.90
16313;DHT22;8265;52.622;13.296;2022-08-19T21:52:35;21.20;99.90
16313;DHT22;8265;52.622;13.296;2022-08-19T21:57:56;21.20;99.90
16313;DHT22;8265;52.622;13.296;2022-08-19T22:03:17;21.40;99.90
16313;DHT22;8265;52.622;13.296;2022-08-19T22:08:38;21.40;99.90
16313;DHT22;8265;52.622;13.296;2022-08-19T22:13:59;21.30;99.90
16313;DHT22;8265;52.622;13.296;2022-08-19T22:19:20;21.20;99.90
16313;DHT22;8265;52.622;13.296;2022-08-19T22:24:41;21.10;99.90
16313;DHT22;8265;52.622;13.296;2022-08-19T22:30:02;21.20;99.90
16313;DHT22;8265;52.622;13.296;2022-08-19T22:35:23;21.30;99.90
16313;DHT22;8265;52.622;13.296;2022-08-19T22:40:44;21.30;99.90
16313;DHT22;8265;52.622;13.296;2022-08-19T22:46:05;21.30;99.90
16313;DHT22;8265;52.622;13.296;2022-08-19T22:51:26;21.30;99.90
16313;DHT22;8265;52.622;13.296;2022-08-19T22:56:47;21.20;99.90
16313;DHT22;8265;52.622;13.296;2022-08-19T23:02:08;21.10;99.90
16313;DHT22;8265;52.622;13.296;2022-08-19T23:07:29;21.00;99.90
16313;DHT22;8265;52.622;13.296;2022-08-19T23:12:50;21.00;99.90
16313;DHT22;8265;52.622;13.296;2022-08-19T23:18:11;21.00;99.90
16313;DHT22;8265;52.622;13.296;2022-08-19T23:23:32;21.00;99.90
16313;DHT22;8265;52.622;13.296;2022-08-19T23:28:52;21.00;99.90
16313;DHT22;8265;52.622;13.296;2022-08-19T23:34:13;21.00;99.90
16313;DHT22;8265;52.622;13.296;2022-08-19T23:39:35;20.90;99.90
16313;DHT22;8265;52.622;13.296;2022-08-19T23:45:00;20.90;99.90
16313;DHT22;8265;52.622;13.296;2022-08-19T23:50:16;20.80;99.90
16313;DHT22;8265;52.622;13.296;2022-08-19T23:55:39;20.80;99.90
